sensor_id;sensor_type;location;lat;lon;timestamp;P1;durP1;ratioP1;P2;durP2;ratioP2
4585;SDS011;2305;50.118;8.952;2024-03-06T00:01:06;9.20;;;5.07;;
4585;SDS011;2305;50.118;8.952;2024-03-06T00:03:36;8.77;;;5.70;;
4585;SDS011;2305;50.118;8.952;2024-03-06T00:06:06;13.80;;;6.23;;
4585;SDS011;2305;50.118;8.952;2024-03-06T00:08:36;13.50;;;6.20;;
4585;SDS011;2305;50.118;8.952;2024-03-06T00:11:06;10.50;;;6.53;;
4585;SDS011;2305;50.118;8.952;2024-03-06T00:13:34;9.40;;;6.00;;
4585;SDS011;2305;50.118;8.952;2024-03-06T00:16:03;9.83;;;5.90;;
4585;SDS011;2305;50.118;8.952;2024-03-06T00:18:31;9.43;;;5.70;;
4585;SDS011;2305;50.118;8.952;2024-03-06T00:20:59;8.00;;;5.27;;
4585;SDS011;2305;50.118;8.952;2024-03-06T00:23:27;10.50;;;4.63;;
4585;SDS011;2305;50.118;8.952;2024-03-06T00:25:57;6.57;;;4.70;;
4585;SDS011;2305;50.118;8.952;2024-03-06T00:28:27;6.63;;;4.73;;
4585;SDS011;2305;50.118;8.952;2024-03-06T00:30:56;10.17;;;5.03;;
4585;SDS011;2305;50.118;8.952;2024-03-06T00:33:24;11.37;;;6.40;;
4585;SDS011;2305;50.118;8.952;2024-03-06T00:35:52;8.40;;;4.77;;
4585;SDS011;2305;50.118;8.952;2024-03-06T00:38:21;7.30;;;5.50;;
4585;SDS011;2305;50.118;8.952;2024-03-06T00:40:49;10.40;;;6.10;;
4585;SDS011;2305;50.118;8.952;2024-03-06T00:43:19;9.93;;;5.77;;
4585;SDS011;2305;50.118;8.952;2024-03-06T00:45:47;9.13;;;5.57;;
4585;SDS011;2305;50.118;8.952;2024-03-06T00:48:15;8.03;;;4.93;;
4585;SDS011;2305;50.118;8.952;2024-03-06T00:50:48;9.40;;;5.20;;
4585;SDS011;2305;50.118;8.952;2024-03-06T00:53:19;9.70;;;5.53;;
4585;SDS011;2305;50.118;8.952;2024-03-06T00:55:48;10.43;;;6.00;;
4585;SDS011;2305;50.118;8.952;2024-03-06T00:58:16;9.00;;;4.97;;
4585;SDS011;2305;50.118;8.952;2024-03-06T01:00:45;8.00;;;5.27;;
4585;SDS011;2305;50.118;8.952;2024-03-06T01:03:16;8.37;;;5.40;;
4585;SDS011;2305;50.118;8.952;2024-03-06T01:05:44;9.67;;;5.37;;
4585;SDS011;2305;50.118;8.952;2024-03-06T01:08:15;13.10;;;5.57;;
4585;SDS011;2305;50.118;8.952;2024-03-06T01:10:47;6.20;;;4.90;;
4585;SDS011;2305;50.118;8.952;2024-03-06T01:13:15;10.67;;;6.50;;
4585;SDS011;2305;50.118;8.952;2024-03-06T01:15:43;12.00;;;5.53;;
4585;SDS011;2305;50.118;8.952;2024-03-06T01:18:13;10.07;;;6.83;;
4585;SDS011;2305;50.118;8.952;2024-03-06T01:20:41;10.60;;;6.43;;
4585;SDS011;2305;50.118;8.952;2024-03-06T01:23:09;10.77;;;6.27;;
4585;SDS011;2305;50.118;8.952;2024-03-06T01:25:37;11.80;;;6.67;;
4585;SDS011;2305;50.118;8.952;2024-03-06T01:28:05;11.80;;;7.10;;
4585;SDS011;2305;50.118;8.952;2024-03-06T01:30:33;10.60;;;7.03;;
4585;SDS011;2305;50.118;8.952;2024-03-06T01:33:02;10.17;;;6.03;;
4585;SDS011;2305;50.118;8.952;2024-03-06T01:35:33;10.10;;;5.70;;
4585;SDS011;2305;50.118;8.952;2024-03-06T01:38:01;10.93;;;6.00;;
4585;SDS011;2305;50.118;8.952;2024-03-06T01:40:29;9.80;;;5.30;;
4585;SDS011;2305;50.118;8.952;2024-03-06T01:42:57;10.77;;;5.43;;
4585;SDS011;2305;50.118;8.952;2024-03-06T01:45:28;10.67;;;6.90;;
4585;SDS011;2305;50.118;8.952;2024-03-06T01:47:57;13.60;;;5.77;;
4585;SDS011;2305;50.118;8.952;2024-03-06T01:50:25;7.63;;;4.80;;
4585;SDS011;2305;50.118;8.952;2024-03-06T01:52:55;10.53;;;5.50;;
4585;SDS011;2305;50.118;8.952;2024-03-06T01:55:23;7.40;;;5.63;;
4585;SDS011;2305;50.118;8.952;2024-03-06T01:57:51;8.33;;;4.97;;
4585;SDS011;2305;50.118;8.952;2024-03-06T02:00:20;10.03;;;5.70;;
4585;SDS011;2305;50.118;8.952;2024-03-06T02:02:51;7.47;;;4.73;;
4585;SDS011;2305;50.118;8.952;2024-03-06T02:05:20;9.10;;;5.50;;
4585;SDS011;2305;50.118;8.952;2024-03-06T02:07:50;7.50;;;5.87;;
4585;SDS011;2305;50.118;8.952;2024-03-06T02:10:22;11.30;;;6.23;;
4585;SDS011;2305;50.118;8.952;2024-03-06T02:12:50;8.23;;;5.43;;
4585;SDS011;2305;50.118;8.952;2024-03-06T02:15:19;10.70;;;5.97;;
4585;SDS011;2305;50.118;8.952;2024-03-06T02:17:47;8.57;;;4.97;;
4585;SDS011;2305;50.118;8.952;2024-03-06T02:20:16;9.87;;;5.80;;
4585;SDS011;2305;50.118;8.952;2024-03-06T02:22:48;7.20;;;5.10;;
4585;SDS011;2305;50.118;8.952;2024-03-06T02:25:16;7.63;;;5.10;;
4585;SDS011;2305;50.118;8.952;2024-03-06T02:27:45;7.97;;;5.30;;
4585;SDS011;2305;50.118;8.952;2024-03-06T02:30:14;11.40;;;4.90;;
4585;SDS011;2305;50.118;8.952;2024-03-06T02:32:51;7.73;;;4.50;;
4585;SDS011;2305;50.118;8.952;2024-03-06T02:35:19;11.73;;;5.50;;
4585;SDS011;2305;50.118;8.952;2024-03-06T02:37:48;8.40;;;5.13;;
4585;SDS011;2305;50.118;8.952;2024-03-06T02:40:17;8.07;;;5.40;;
4585;SDS011;2305;50.118;8.952;2024-03-06T02:42:47;8.00;;;5.70;;
4585;SDS011;2305;50.118;8.952;2024-03-06T02:45:15;7.77;;;5.20;;
4585;SDS011;2305;50.118;8.952;2024-03-06T02:47:44;8.97;;;4.97;;
4585;SDS011;2305;50.118;8.952;2024-03-06T02:50:12;9.20;;;4.87;;
4585;SDS011;2305;50.118;8.952;2024-03-06T02:52:41;7.17;;;4.70;;
4585;SDS011;2305;50.118;8.952;2024-03-06T02:55:13;11.00;;;5.10;;
4585;SDS011;2305;50.118;8.952;2024-03-06T02:57:41;9.67;;;4.80;;
4585;SDS011;2305;50.118;8.952;2024-03-06T03:00:10;9.80;;;5.33;;
4585;SDS011;2305;50.118;8.952;2024-03-06T03:02:44;10.17;;;5.47;;
4585;SDS011;2305;50.118;8.952;2024-03-06T03:05:12;12.83;;;5.70;;
4585;SDS011;2305;50.118;8.952;2024-03-06T03:07:41;7.97;;;5.27;;
4585;SDS011;2305;50.118;8.952;2024-03-06T03:10:15;7.70;;;4.70;;
4585;SDS011;2305;50.118;8.952;2024-03-06T03:12:44;7.10;;;4.80;;
4585;SDS011;2305;50.118;8.952;2024-03-06T03:15:13;7.20;;;4.93;;
4585;SDS011;2305;50.118;8.952;2024-03-06T03:17:41;8.43;;;4.73;;
4585;SDS011;2305;50.118;8.952;2024-03-06T03:20:10;10.67;;;5.93;;
4585;SDS011;2305;50.118;8.952;2024-03-06T03:22:41;8.53;;;5.40;;
4585;SDS011;2305;50.118;8.952;2024-03-06T03:25:12;8.03;;;4.73;;
4585;SDS011;2305;50.118;8.952;2024-03-06T03:27:44;8.80;;;5.50;;
4585;SDS011;2305;50.118;8.952;2024-03-06T03:30:13;9.10;;;5.03;;
4585;SDS011;2305;50.118;8.952;2024-03-06T03:32:42;5.97;;;4.50;;
4585;SDS011;2305;50.118;8.952;2024-03-06T03:35:13;7.07;;;4.90;;
4585;SDS011;2305;50.118;8.952;2024-03-06T03:37:42;6.87;;;4.47;;
4585;SDS011;2305;50.118;8.952;2024-03-06T03:40:10;10.90;;;5.10;;
4585;SDS011;2305;50.118;8.952;2024-03-06T03:42:39;10.60;;;5.63;;
4585;SDS011;2305;50.118;8.952;2024-03-06T03:45:08;7.43;;;5.30;;
4585;SDS011;2305;50.118;8.952;2024-03-06T03:47:39;7.13;;;4.53;;
4585;SDS011;2305;50.118;8.952;2024-03-06T03:50:09;6.60;;;4.53;;
4585;SDS011;2305;50.118;8.952;2024-03-06T03:52:37;7.27;;;4.53;;
4585;SDS011;2305;50.118;8.952;2024-03-06T03:55:09;7.07;;;4.57;;
4585;SDS011;2305;50.118;8.952;2024-03-06T03:57:38;7.57;;;4.87;;
4585;SDS011;2305;50.118;8.952;2024-03-06T04:00:06;6.93;;;4.60;;
4585;SDS011;2305;50.118;8.952;2024-03-06T04:02:40;8.70;;;4.70;;
4585;SDS011;2305;50.118;8.952;2024-03-06T04:05:09;7.90;;;4.40;;
4585;SDS011;2305;50.118;8.952;2024-03-06T04:07:37;8.83;;;4.67;;
4585;SDS011;2305;50.118;8.952;2024-03-06T04:10:06;6.80;;;4.10;;
4585;SDS011;2305;50.118;8.952;2024-03-06T04:12:37;7.70;;;4.80;;
4585;SDS011;2305;50.118;8.952;2024-03-06T04:15:09;6.50;;;4.33;;
4585;SDS011;2305;50.118;8.952;2024-03-06T04:17:37;6.07;;;4.63;;
4585;SDS011;2305;50.118;8.952;2024-03-06T04:20:09;6.93;;;4.53;;
4585;SDS011;2305;50.118;8.952;2024-03-06T04:22:39;10.67;;;5.47;;
4585;SDS011;2305;50.118;8.952;2024-03-06T04:25:08;5.90;;;4.30;;
4585;SDS011;2305;50.118;8.952;2024-03-06T04:27:36;7.77;;;4.77;;
4585;SDS011;2305;50.118;8.952;2024-03-06T04:30:04;7.83;;;4.77;;
4585;SDS011;2305;50.118;8.952;2024-03-06T04:32:34;7.27;;;4.97;;
4585;SDS011;2305;50.118;8.952;2024-03-06T04:35:02;6.47;;;4.73;;
4585;SDS011;2305;50.118;8.952;2024-03-06T04:37:34;6.73;;;4.50;;
4585;SDS011;2305;50.118;8.952;2024-03-06T04:40:03;6.33;;;4.73;;
4585;SDS011;2305;50.118;8.952;2024-03-06T04:42:34;7.03;;;4.43;;
4585;SDS011;2305;50.118;8.952;2024-03-06T04:45:03;8.10;;;4.80;;
4585;SDS011;2305;50.118;8.952;2024-03-06T04:47:36;10.43;;;4.37;;
4585;SDS011;2305;50.118;8.952;2024-03-06T04:50:07;11.00;;;4.90;;
4585;SDS011;2305;50.118;8.952;2024-03-06T04:52:38;8.60;;;5.33;;
4585;SDS011;2305;50.118;8.952;2024-03-06T04:55:10;7.43;;;5.37;;
4585;SDS011;2305;50.118;8.952;2024-03-06T04:57:39;7.70;;;4.30;;
4585;SDS011;2305;50.118;8.952;2024-03-06T05:00:11;6.43;;;4.47;;
4585;SDS011;2305;50.118;8.952;2024-03-06T05:02:40;5.10;;;4.40;;
4585;SDS011;2305;50.118;8.952;2024-03-06T05:05:32;5.80;;;4.10;;
4585;SDS011;2305;50.118;8.952;2024-03-06T05:08:19;8.83;;;4.43;;
4585;SDS011;2305;50.118;8.952;2024-03-06T05:11:08;6.70;;;4.60;;
4585;SDS011;2305;50.118;8.952;2024-03-06T05:13:54;12.10;;;4.77;;
4585;SDS011;2305;50.118;8.952;2024-03-06T05:16:39;9.57;;;5.27;;
4585;SDS011;2305;50.118;8.952;2024-03-06T05:19:25;8.40;;;5.00;;
4585;SDS011;2305;50.118;8.952;2024-03-06T05:22:17;9.43;;;5.30;;
4585;SDS011;2305;50.118;8.952;2024-03-06T05:25:04;6.37;;;4.87;;
4585;SDS011;2305;50.118;8.952;2024-03-06T05:27:51;9.07;;;5.40;;
4585;SDS011;2305;50.118;8.952;2024-03-06T05:30:37;9.50;;;4.43;;
4585;SDS011;2305;50.118;8.952;2024-03-06T05:33:23;8.70;;;4.30;;
4585;SDS011;2305;50.118;8.952;2024-03-06T05:36:08;7.80;;;4.43;;
4585;SDS011;2305;50.118;8.952;2024-03-06T05:38:54;8.37;;;4.57;;
4585;SDS011;2305;50.118;8.952;2024-03-06T05:41:41;7.80;;;4.63;;
4585;SDS011;2305;50.118;8.952;2024-03-06T05:44:26;9.50;;;5.13;;
4585;SDS011;2305;50.118;8.952;2024-03-06T05:47:12;10.17;;;5.97;;
4585;SDS011;2305;50.118;8.952;2024-03-06T05:49:58;9.40;;;5.90;;
4585;SDS011;2305;50.118;8.952;2024-03-06T05:52:43;9.27;;;5.53;;
4585;SDS011;2305;50.118;8.952;2024-03-06T05:55:30;15.40;;;7.43;;
4585;SDS011;2305;50.118;8.952;2024-03-06T05:58:17;16.17;;;6.73;;
4585;SDS011;2305;50.118;8.952;2024-03-06T06:00:48;13.40;;;6.53;;
4585;SDS011;2305;50.118;8.952;2024-03-06T06:03:16;15.10;;;7.07;;
4585;SDS011;2305;50.118;8.952;2024-03-06T06:05:44;13.20;;;7.13;;
4585;SDS011;2305;50.118;8.952;2024-03-06T06:08:13;22.17;;;8.63;;
4585;SDS011;2305;50.118;8.952;2024-03-06T06:10:41;16.93;;;7.83;;
4585;SDS011;2305;50.118;8.952;2024-03-06T06:13:11;21.63;;;7.90;;
4585;SDS011;2305;50.118;8.952;2024-03-06T06:15:40;21.20;;;7.80;;
4585;SDS011;2305;50.118;8.952;2024-03-06T06:18:08;19.40;;;8.03;;
4585;SDS011;2305;50.118;8.952;2024-03-06T06:20:40;21.40;;;7.80;;
4585;SDS011;2305;50.118;8.952;2024-03-06T06:23:08;20.77;;;8.30;;
4585;SDS011;2305;50.118;8.952;2024-03-06T06:25:36;19.33;;;8.63;;
4585;SDS011;2305;50.118;8.952;2024-03-06T06:28:04;15.10;;;8.37;;
4585;SDS011;2305;50.118;8.952;2024-03-06T06:30:32;26.23;;;8.47;;
4585;SDS011;2305;50.118;8.952;2024-03-06T06:33:02;20.13;;;8.10;;
4585;SDS011;2305;50.118;8.952;2024-03-06T06:35:30;16.50;;;8.07;;
4585;SDS011;2305;50.118;8.952;2024-03-06T06:37:58;22.73;;;8.80;;
4585;SDS011;2305;50.118;8.952;2024-03-06T06:40:27;15.77;;;8.20;;
4585;SDS011;2305;50.118;8.952;2024-03-06T06:42:56;20.27;;;9.30;;
4585;SDS011;2305;50.118;8.952;2024-03-06T06:45:25;20.70;;;9.67;;
4585;SDS011;2305;50.118;8.952;2024-03-06T06:47:53;19.20;;;8.20;;
4585;SDS011;2305;50.118;8.952;2024-03-06T06:50:23;21.27;;;9.37;;
4585;SDS011;2305;50.118;8.952;2024-03-06T06:52:53;26.27;;;9.43;;
4585;SDS011;2305;50.118;8.952;2024-03-06T06:55:21;23.33;;;10.00;;
4585;SDS011;2305;50.118;8.952;2024-03-06T06:57:51;27.83;;;11.30;;
4585;SDS011;2305;50.118;8.952;2024-03-06T07:00:19;24.93;;;9.87;;
4585;SDS011;2305;50.118;8.952;2024-03-06T07:02:50;31.73;;;11.40;;
4585;SDS011;2305;50.118;8.952;2024-03-06T07:05:21;22.60;;;8.83;;
4585;SDS011;2305;50.118;8.952;2024-03-06T07:07:50;22.50;;;8.43;;
4585;SDS011;2305;50.118;8.952;2024-03-06T07:10:21;19.83;;;9.17;;
4585;SDS011;2305;50.118;8.952;2024-03-06T07:12:49;21.70;;;8.60;;
4585;SDS011;2305;50.118;8.952;2024-03-06T07:15:19;19.10;;;8.53;;
4585;SDS011;2305;50.118;8.952;2024-03-06T07:17:47;19.10;;;9.77;;
4585;SDS011;2305;50.118;8.952;2024-03-06T07:20:16;13.73;;;8.17;;
4585;SDS011;2305;50.118;8.952;2024-03-06T07:22:44;15.27;;;8.50;;
4585;SDS011;2305;50.118;8.952;2024-03-06T07:25:14;16.33;;;9.50;;
4585;SDS011;2305;50.118;8.952;2024-03-06T07:27:42;14.43;;;8.30;;
4585;SDS011;2305;50.118;8.952;2024-03-06T07:30:10;12.07;;;7.60;;
4585;SDS011;2305;50.118;8.952;2024-03-06T07:32:40;13.80;;;8.00;;
4585;SDS011;2305;50.118;8.952;2024-03-06T07:35:08;14.47;;;8.30;;
4585;SDS011;2305;50.118;8.952;2024-03-06T07:37:37;11.53;;;7.90;;
4585;SDS011;2305;50.118;8.952;2024-03-06T07:40:05;15.43;;;8.60;;
4585;SDS011;2305;50.118;8.952;2024-03-06T07:42:37;13.10;;;8.53;;
4585;SDS011;2305;50.118;8.952;2024-03-06T07:45:06;12.37;;;8.00;;
4585;SDS011;2305;50.118;8.952;2024-03-06T07:47:38;16.77;;;8.83;;
4585;SDS011;2305;50.118;8.952;2024-03-06T07:50:10;19.40;;;9.83;;
4585;SDS011;2305;50.118;8.952;2024-03-06T07:52:41;14.50;;;8.50;;
4585;SDS011;2305;50.118;8.952;2024-03-06T07:55:09;18.57;;;9.60;;
4585;SDS011;2305;50.118;8.952;2024-03-06T07:57:39;17.83;;;10.23;;
4585;SDS011;2305;50.118;8.952;2024-03-06T08:00:11;17.17;;;10.20;;
4585;SDS011;2305;50.118;8.952;2024-03-06T08:02:41;21.30;;;10.60;;
4585;SDS011;2305;50.118;8.952;2024-03-06T08:05:10;20.73;;;9.80;;
4585;SDS011;2305;50.118;8.952;2024-03-06T08:07:39;21.40;;;11.93;;
4585;SDS011;2305;50.118;8.952;2024-03-06T08:10:09;19.47;;;10.00;;
4585;SDS011;2305;50.118;8.952;2024-03-06T08:12:41;22.13;;;10.70;;
4585;SDS011;2305;50.118;8.952;2024-03-06T08:15:11;19.20;;;10.30;;
4585;SDS011;2305;50.118;8.952;2024-03-06T08:17:40;27.07;;;11.30;;
4585;SDS011;2305;50.118;8.952;2024-03-06T08:20:10;23.13;;;11.10;;
4585;SDS011;2305;50.118;8.952;2024-03-06T08:22:40;27.67;;;11.60;;
4585;SDS011;2305;50.118;8.952;2024-03-06T08:25:09;26.73;;;10.93;;
4585;SDS011;2305;50.118;8.952;2024-03-06T08:27:39;25.23;;;12.20;;
4585;SDS011;2305;50.118;8.952;2024-03-06T08:30:10;22.00;;;11.63;;
4585;SDS011;2305;50.118;8.952;2024-03-06T08:32:39;32.40;;;14.30;;
4585;SDS011;2305;50.118;8.952;2024-03-06T08:35:11;28.57;;;16.10;;
4585;SDS011;2305;50.118;8.952;2024-03-06T08:37:44;35.80;;;16.87;;
4585;SDS011;2305;50.118;8.952;2024-03-06T08:40:12;45.43;;;16.73;;
4585;SDS011;2305;50.118;8.952;2024-03-06T08:42:42;39.57;;;18.20;;
4585;SDS011;2305;50.118;8.952;2024-03-06T08:45:12;36.47;;;17.20;;
4585;SDS011;2305;50.118;8.952;2024-03-06T08:47:40;48.27;;;19.23;;
4585;SDS011;2305;50.118;8.952;2024-03-06T08:50:10;41.23;;;18.63;;
4585;SDS011;2305;50.118;8.952;2024-03-06T08:52:41;47.73;;;21.07;;
4585;SDS011;2305;50.118;8.952;2024-03-06T08:55:10;40.50;;;17.50;;
4585;SDS011;2305;50.118;8.952;2024-03-06T08:57:39;37.90;;;19.37;;
4585;SDS011;2305;50.118;8.952;2024-03-06T09:00:07;37.70;;;16.83;;
4585;SDS011;2305;50.118;8.952;2024-03-06T09:02:38;32.63;;;15.77;;
4585;SDS011;2305;50.118;8.952;2024-03-06T09:05:09;36.00;;;15.17;;
4585;SDS011;2305;50.118;8.952;2024-03-06T09:07:40;26.03;;;15.63;;
4585;SDS011;2305;50.118;8.952;2024-03-06T09:10:08;28.67;;;15.50;;
4585;SDS011;2305;50.118;8.952;2024-03-06T09:12:37;27.30;;;14.30;;
4585;SDS011;2305;50.118;8.952;2024-03-06T09:15:05;27.87;;;15.20;;
4585;SDS011;2305;50.118;8.952;2024-03-06T09:17:39;23.60;;;13.00;;
4585;SDS011;2305;50.118;8.952;2024-03-06T09:20:08;27.20;;;14.83;;
4585;SDS011;2305;50.118;8.952;2024-03-06T09:22:39;22.27;;;12.47;;
4585;SDS011;2305;50.118;8.952;2024-03-06T09:25:08;25.00;;;14.30;;
4585;SDS011;2305;50.118;8.952;2024-03-06T09:27:37;21.90;;;13.03;;
4585;SDS011;2305;50.118;8.952;2024-03-06T09:30:05;25.57;;;14.80;;
4585;SDS011;2305;50.118;8.952;2024-03-06T09:32:35;23.60;;;13.20;;
4585;SDS011;2305;50.118;8.952;2024-03-06T09:35:07;24.67;;;14.40;;
4585;SDS011;2305;50.118;8.952;2024-03-06T09:37:35;22.20;;;14.60;;
4585;SDS011;2305;50.118;8.952;2024-03-06T09:40:03;22.80;;;14.20;;
4585;SDS011;2305;50.118;8.952;2024-03-06T09:42:34;23.10;;;14.80;;
4585;SDS011;2305;50.118;8.952;2024-03-06T09:45:02;22.93;;;14.03;;
4585;SDS011;2305;50.118;8.952;2024-03-06T09:47:31;24.33;;;14.47;;
4585;SDS011;2305;50.118;8.952;2024-03-06T09:50:02;25.13;;;14.30;;
4585;SDS011;2305;50.118;8.952;2024-03-06T09:52:34;22.73;;;14.27;;
4585;SDS011;2305;50.118;8.952;2024-03-06T09:55:06;22.13;;;13.33;;
4585;SDS011;2305;50.118;8.952;2024-03-06T09:57:36;23.83;;;14.00;;
4585;SDS011;2305;50.118;8.952;2024-03-06T10:00:05;20.43;;;13.37;;
4585;SDS011;2305;50.118;8.952;2024-03-06T10:02:37;27.87;;;13.00;;
4585;SDS011;2305;50.118;8.952;2024-03-06T10:05:09;22.20;;;13.37;;
4585;SDS011;2305;50.118;8.952;2024-03-06T10:07:51;22.50;;;12.37;;
4585;SDS011;2305;50.118;8.952;2024-03-06T10:10:21;24.17;;;14.33;;
4585;SDS011;2305;50.118;8.952;2024-03-06T10:12:53;20.47;;;12.77;;
4585;SDS011;2305;50.118;8.952;2024-03-06T10:15:23;22.57;;;14.70;;
4585;SDS011;2305;50.118;8.952;2024-03-06T10:17:53;22.00;;;13.27;;
4585;SDS011;2305;50.118;8.952;2024-03-06T10:20:38;21.63;;;13.40;;
4585;SDS011;2305;50.118;8.952;2024-03-06T10:23:10;24.83;;;14.30;;
4585;SDS011;2305;50.118;8.952;2024-03-06T10:25:39;22.20;;;13.57;;
4585;SDS011;2305;50.118;8.952;2024-03-06T10:28:10;22.80;;;14.17;;
4585;SDS011;2305;50.118;8.952;2024-03-06T10:30:40;25.80;;;13.77;;
4585;SDS011;2305;50.118;8.952;2024-03-06T10:33:12;22.13;;;12.77;;
4585;SDS011;2305;50.118;8.952;2024-03-06T10:35:42;24.80;;;13.57;;
4585;SDS011;2305;50.118;8.952;2024-03-06T10:38:13;25.70;;;14.63;;
4585;SDS011;2305;50.118;8.952;2024-03-06T10:40:42;22.33;;;12.87;;
4585;SDS011;2305;50.118;8.952;2024-03-06T10:43:13;21.47;;;13.00;;
4585;SDS011;2305;50.118;8.952;2024-03-06T10:45:43;23.03;;;13.73;;
4585;SDS011;2305;50.118;8.952;2024-03-06T10:48:15;25.27;;;13.60;;
4585;SDS011;2305;50.118;8.952;2024-03-06T10:50:45;21.37;;;12.10;;
4585;SDS011;2305;50.118;8.952;2024-03-06T10:53:17;22.13;;;13.50;;
4585;SDS011;2305;50.118;8.952;2024-03-06T10:55:49;23.90;;;13.37;;
4585;SDS011;2305;50.118;8.952;2024-03-06T10:58:18;24.67;;;13.27;;
4585;SDS011;2305;50.118;8.952;2024-03-06T11:00:48;23.87;;;12.70;;
4585;SDS011;2305;50.118;8.952;2024-03-06T11:03:17;24.87;;;12.80;;
4585;SDS011;2305;50.118;8.952;2024-03-06T11:05:46;22.33;;;12.03;;
4585;SDS011;2305;50.118;8.952;2024-03-06T11:08:19;20.73;;;12.20;;
4585;SDS011;2305;50.118;8.952;2024-03-06T11:10:48;21.33;;;13.93;;
4585;SDS011;2305;50.118;8.952;2024-03-06T11:13:23;17.87;;;11.33;;
4585;SDS011;2305;50.118;8.952;2024-03-06T11:15:53;21.20;;;12.57;;
4585;SDS011;2305;50.118;8.952;2024-03-06T11:18:43;18.07;;;11.50;;
4585;SDS011;2305;50.118;8.952;2024-03-06T11:21:27;23.63;;;14.30;;
4585;SDS011;2305;50.118;8.952;2024-03-06T11:24:13;22.57;;;12.90;;
4585;SDS011;2305;50.118;8.952;2024-03-06T11:26:57;20.27;;;12.00;;
4585;SDS011;2305;50.118;8.952;2024-03-06T11:29:27;17.63;;;10.77;;
4585;SDS011;2305;50.118;8.952;2024-03-06T11:32:00;20.37;;;12.50;;
4585;SDS011;2305;50.118;8.952;2024-03-06T11:34:34;21.00;;;12.73;;
4585;SDS011;2305;50.118;8.952;2024-03-06T11:37:04;20.47;;;13.50;;
4585;SDS011;2305;50.118;8.952;2024-03-06T11:39:36;20.70;;;12.50;;
4585;SDS011;2305;50.118;8.952;2024-03-06T11:42:06;22.50;;;13.00;;
4585;SDS011;2305;50.118;8.952;2024-03-06T11:44:36;22.10;;;12.43;;
4585;SDS011;2305;50.118;8.952;2024-03-06T11:47:04;23.33;;;13.70;;
4585;SDS011;2305;50.118;8.952;2024-03-06T11:49:35;21.40;;;12.33;;
4585;SDS011;2305;50.118;8.952;2024-03-06T11:52:08;20.63;;;12.07;;
4585;SDS011;2305;50.118;8.952;2024-03-06T11:54:38;21.23;;;12.50;;
4585;SDS011;2305;50.118;8.952;2024-03-06T11:57:05;18.67;;;11.53;;
4585;SDS011;2305;50.118;8.952;2024-03-06T11:59:35;19.03;;;11.67;;
4585;SDS011;2305;50.118;8.952;2024-03-06T12:02:05;19.63;;;12.67;;
4585;SDS011;2305;50.118;8.952;2024-03-06T12:04:35;22.00;;;12.17;;
4585;SDS011;2305;50.118;8.952;2024-03-06T12:07:06;20.67;;;12.40;;
4585;SDS011;2305;50.118;8.952;2024-03-06T12:09:35;21.97;;;12.13;;
4585;SDS011;2305;50.118;8.952;2024-03-06T12:12:09;20.17;;;12.27;;
4585;SDS011;2305;50.118;8.952;2024-03-06T12:14:39;21.97;;;12.50;;
4585;SDS011;2305;50.118;8.952;2024-03-06T12:17:11;21.83;;;12.20;;
4585;SDS011;2305;50.118;8.952;2024-03-06T12:19:41;18.67;;;10.97;;
4585;SDS011;2305;50.118;8.952;2024-03-06T12:22:10;20.60;;;11.93;;
4585;SDS011;2305;50.118;8.952;2024-03-06T12:24:40;17.63;;;11.40;;
4585;SDS011;2305;50.118;8.952;2024-03-06T12:27:12;20.97;;;11.50;;
4585;SDS011;2305;50.118;8.952;2024-03-06T12:29:41;22.13;;;12.73;;
4585;SDS011;2305;50.118;8.952;2024-03-06T12:32:16;21.20;;;11.30;;
4585;SDS011;2305;50.118;8.952;2024-03-06T12:34:56;18.73;;;11.43;;
4585;SDS011;2305;50.118;8.952;2024-03-06T12:37:30;22.67;;;12.70;;
4585;SDS011;2305;50.118;8.952;2024-03-06T12:40:02;26.53;;;12.23;;
4585;SDS011;2305;50.118;8.952;2024-03-06T12:42:32;21.40;;;12.23;;
4585;SDS011;2305;50.118;8.952;2024-03-06T12:45:03;22.93;;;12.47;;
4585;SDS011;2305;50.118;8.952;2024-03-06T12:47:33;22.40;;;12.30;;
4585;SDS011;2305;50.118;8.952;2024-03-06T12:50:02;22.10;;;13.00;;
4585;SDS011;2305;50.118;8.952;2024-03-06T12:52:34;19.47;;;12.13;;
4585;SDS011;2305;50.118;8.952;2024-03-06T12:55:04;20.13;;;12.10;;
4585;SDS011;2305;50.118;8.952;2024-03-06T12:57:33;19.13;;;11.77;;
4585;SDS011;2305;50.118;8.952;2024-03-06T13:00:02;20.20;;;12.03;;
4585;SDS011;2305;50.118;8.952;2024-03-06T13:02:35;21.93;;;11.67;;
4585;SDS011;2305;50.118;8.952;2024-03-06T13:05:03;17.60;;;11.60;;
4585;SDS011;2305;50.118;8.952;2024-03-06T13:07:32;19.50;;;11.00;;
4585;SDS011;2305;50.118;8.952;2024-03-06T13:10:00;21.03;;;11.83;;
4585;SDS011;2305;50.118;8.952;2024-03-06T13:12:35;17.53;;;11.80;;
4585;SDS011;2305;50.118;8.952;2024-03-06T13:15:03;18.87;;;11.13;;
4585;SDS011;2305;50.118;8.952;2024-03-06T13:17:33;22.00;;;11.47;;
4585;SDS011;2305;50.118;8.952;2024-03-06T13:20:02;20.23;;;11.03;;
4585;SDS011;2305;50.118;8.952;2024-03-06T13:22:30;16.90;;;10.43;;
4585;SDS011;2305;50.118;8.952;2024-03-06T13:24:58;17.73;;;10.80;;
4585;SDS011;2305;50.118;8.952;2024-03-06T13:27:29;16.10;;;9.40;;
4585;SDS011;2305;50.118;8.952;2024-03-06T13:29:58;22.23;;;10.50;;
4585;SDS011;2305;50.118;8.952;2024-03-06T13:32:31;18.40;;;10.30;;
4585;SDS011;2305;50.118;8.952;2024-03-06T13:35:00;16.73;;;10.17;;
4585;SDS011;2305;50.118;8.952;2024-03-06T13:37:28;15.53;;;9.33;;
4585;SDS011;2305;50.118;8.952;2024-03-06T13:39:56;15.80;;;10.33;;
4585;SDS011;2305;50.118;8.952;2024-03-06T13:42:28;17.27;;;10.37;;
4585;SDS011;2305;50.118;8.952;2024-03-06T13:45:00;17.00;;;9.90;;
4585;SDS011;2305;50.118;8.952;2024-03-06T13:47:30;17.43;;;10.60;;
4585;SDS011;2305;50.118;8.952;2024-03-06T13:49:59;17.10;;;10.57;;
4585;SDS011;2305;50.118;8.952;2024-03-06T13:52:27;18.80;;;10.67;;
4585;SDS011;2305;50.118;8.952;2024-03-06T13:54:56;21.17;;;11.93;;
4585;SDS011;2305;50.118;8.952;2024-03-06T13:57:24;27.77;;;11.30;;
4585;SDS011;2305;50.118;8.952;2024-03-06T13:59:52;18.97;;;11.33;;
4585;SDS011;2305;50.118;8.952;2024-03-06T14:02:22;19.67;;;11.47;;
4585;SDS011;2305;50.118;8.952;2024-03-06T14:04:50;19.33;;;11.17;;
4585;SDS011;2305;50.118;8.952;2024-03-06T14:07:18;18.60;;;12.00;;
4585;SDS011;2305;50.118;8.952;2024-03-06T14:09:47;18.50;;;12.20;;
4585;SDS011;2305;50.118;8.952;2024-03-06T14:12:15;19.27;;;10.73;;
4585;SDS011;2305;50.118;8.952;2024-03-06T14:14:44;19.63;;;11.73;;
4585;SDS011;2305;50.118;8.952;2024-03-06T14:17:12;16.43;;;11.73;;
4585;SDS011;2305;50.118;8.952;2024-03-06T14:19:42;16.63;;;10.90;;
4585;SDS011;2305;50.118;8.952;2024-03-06T14:22:12;18.83;;;11.50;;
4585;SDS011;2305;50.118;8.952;2024-03-06T14:24:41;23.40;;;12.33;;
4585;SDS011;2305;50.118;8.952;2024-03-06T14:27:09;14.00;;;9.47;;
4585;SDS011;2305;50.118;8.952;2024-03-06T14:29:42;19.43;;;11.80;;
4585;SDS011;2305;50.118;8.952;2024-03-06T14:32:14;18.77;;;11.50;;
4585;SDS011;2305;50.118;8.952;2024-03-06T14:34:43;20.97;;;12.03;;
4585;SDS011;2305;50.118;8.952;2024-03-06T14:37:11;18.53;;;12.33;;
4585;SDS011;2305;50.118;8.952;2024-03-06T14:39:40;17.23;;;11.13;;
4585;SDS011;2305;50.118;8.952;2024-03-06T14:42:08;15.20;;;11.00;;
4585;SDS011;2305;50.118;8.952;2024-03-06T14:44:36;20.23;;;10.57;;
4585;SDS011;2305;50.118;8.952;2024-03-06T14:47:04;22.20;;;10.80;;
4585;SDS011;2305;50.118;8.952;2024-03-06T14:49:33;15.80;;;9.57;;
4585;SDS011;2305;50.118;8.952;2024-03-06T14:52:03;15.93;;;10.63;;
4585;SDS011;2305;50.118;8.952;2024-03-06T14:54:31;19.10;;;11.77;;
4585;SDS011;2305;50.118;8.952;2024-03-06T14:57:00;17.87;;;11.23;;
4585;SDS011;2305;50.118;8.952;2024-03-06T14:59:28;15.83;;;11.40;;
4585;SDS011;2305;50.118;8.952;2024-03-06T15:01:56;16.07;;;10.80;;
4585;SDS011;2305;50.118;8.952;2024-03-06T15:04:24;19.43;;;12.20;;
4585;SDS011;2305;50.118;8.952;2024-03-06T15:06:57;16.07;;;10.40;;
4585;SDS011;2305;50.118;8.952;2024-03-06T15:09:27;15.10;;;9.83;;
4585;SDS011;2305;50.118;8.952;2024-03-06T15:11:57;15.20;;;9.50;;
4585;SDS011;2305;50.118;8.952;2024-03-06T15:14:26;21.93;;;11.43;;
4585;SDS011;2305;50.118;8.952;2024-03-06T15:16:59;15.53;;;11.30;;
4585;SDS011;2305;50.118;8.952;2024-03-06T15:19:27;15.53;;;9.60;;